createdAt,value
2023-01-11T00:02:03.550Z,12.68
2023-01-11T00:04:32.024Z,12.35
2023-01-11T00:07:00.296Z,11.75
2023-01-11T00:09:28.607Z,11.88
2023-01-11T00:11:56.850Z,12.35
2023-01-11T00:14:25.759Z,11.63
2023-01-11T00:16:53.789Z,11.73
2023-01-11T00:19:22.227Z,11.63
2023-01-11T00:21:50.630Z,12.25
2023-01-11T00:24:18.874Z,12.05
2023-01-11T00:26:47.042Z,11.38
2023-01-11T00:29:15.096Z,10.43
2023-01-11T00:31:43.505Z,12.05
2023-01-11T00:34:11.508Z,12.02
2023-01-11T00:36:39.531Z,13.18
2023-01-11T00:39:07.739Z,12.13
2023-01-11T00:41:54.456Z,12.23
2023-01-11T00:44:41.563Z,13.43
2023-01-11T00:47:37.131Z,12.30
2023-01-11T00:50:06.149Z,12.90
2023-01-11T00:52:34.074Z,13.35
2023-01-11T00:55:01.991Z,13.88
2023-01-11T00:57:30.358Z,13.18
2023-01-11T00:59:58.455Z,12.57
2023-01-11T01:02:26.535Z,13.23
2023-01-11T01:04:55.949Z,12.07
2023-01-11T01:07:23.998Z,11.80
2023-01-11T01:09:51.948Z,12.65
2023-01-11T01:12:38.755Z,12.23
2023-01-11T01:15:10.463Z,12.75
2023-01-11T01:20:09.019Z,12.27
2023-01-11T01:22:37.605Z,11.48
2023-01-11T01:25:06.122Z,11.10
2023-01-11T01:27:34.435Z,13.60
2023-01-11T01:30:02.325Z,12.35
2023-01-11T01:32:30.345Z,11.45
2023-01-11T01:34:58.965Z,12.95
2023-01-11T01:37:27.625Z,12.50
2023-01-11T01:39:55.831Z,13.02
2023-01-11T01:42:25.638Z,12.98
2023-01-11T01:45:00.658Z,13.23
2023-01-11T01:47:29.304Z,13.45
2023-01-11T01:50:01.557Z,12.63
2023-01-11T01:52:31.192Z,12.95
2023-01-11T01:55:05.660Z,13.15
2023-01-11T01:57:37.747Z,13.32
2023-01-11T02:00:10.643Z,14.27
2023-01-11T02:02:41.336Z,13.65
2023-01-11T02:05:12.187Z,14.67
2023-01-11T02:07:42.146Z,14.33
2023-01-11T02:10:22.814Z,13.30
2023-01-11T02:13:03.562Z,13.20
2023-01-11T02:15:32.503Z,13.73
2023-01-11T02:18:00.898Z,13.80
2023-01-11T02:21:17.855Z,14.15
2023-01-11T02:24:04.218Z,13.20
2023-01-11T02:26:47.700Z,13.20
2023-01-11T02:29:28.413Z,13.77
2023-01-11T02:32:15.032Z,14.18
2023-01-11T02:35:33.669Z,13.50
2023-01-11T02:38:04.813Z,13.30
2023-01-11T02:41:26.807Z,14.20
2023-01-11T02:44:31.708Z,13.30
2023-01-11T02:47:07.191Z,13.57
2023-01-11T02:49:57.363Z,13.60
2023-01-11T02:52:57.617Z,13.93
2023-01-11T02:55:32.868Z,14.00
2023-01-11T02:58:03.855Z,13.48
2023-01-11T03:00:34.054Z,14.40
2023-01-11T03:03:30.471Z,15.15
2023-01-11T03:06:14.431Z,14.70
2023-01-11T03:08:57.427Z,15.02
2023-01-11T03:12:54.385Z,14.70
2023-01-11T03:16:00.319Z,14.85
2023-01-11T03:18:42.288Z,16.60
2023-01-11T03:21:19.285Z,16.17
2023-01-11T03:24:11.124Z,17.40
2023-01-11T03:27:31.177Z,15.45
2023-01-11T03:30:26.979Z,14.02
2023-01-11T03:33:17.091Z,14.30
2023-01-11T03:36:21.796Z,15.52
2023-01-11T03:39:13.331Z,14.23
2023-01-11T03:41:43.730Z,14.55
2023-01-11T03:44:15.015Z,14.88
2023-01-11T03:47:14.479Z,14.20
2023-01-11T03:49:50.563Z,13.32
2023-01-11T03:52:28.072Z,14.80
2023-01-11T03:54:59.287Z,13.55
2023-01-11T03:57:40.697Z,15.15
2023-01-11T04:00:10.708Z,14.00
2023-01-11T04:02:42.552Z,14.60
2023-01-11T04:05:11.913Z,12.68
2023-01-11T04:07:39.875Z,14.57
2023-01-11T04:10:09.791Z,14.32
2023-01-11T04:12:37.760Z,15.15
2023-01-11T04:15:06.352Z,13.98
2023-01-11T04:17:34.477Z,14.10
2023-01-11T04:20:02.809Z,15.35
2023-01-11T04:22:30.865Z,13.05
2023-01-11T04:24:59.921Z,13.95
2023-01-11T04:27:27.792Z,12.63
2023-01-11T04:29:55.709Z,14.60
2023-01-11T04:32:24.352Z,13.77
2023-01-11T04:34:53.091Z,13.43
2023-01-11T04:37:21.033Z,13.63
2023-01-11T04:39:49.162Z,13.68
2023-01-11T04:42:20.191Z,13.38
2023-01-11T04:44:50.309Z,14.05
2023-01-11T04:47:21.707Z,13.65
2023-01-11T04:49:50.279Z,14.32
2023-01-11T04:52:20.839Z,13.40
2023-01-11T04:54:52.446Z,13.88
2023-01-11T04:57:21.690Z,14.80
2023-01-11T04:59:49.815Z,14.27
2023-01-11T05:02:18.626Z,13.65
2023-01-11T05:04:47.029Z,12.90
2023-01-11T05:07:18.081Z,13.27
2023-01-11T05:09:47.144Z,13.20
2023-01-11T05:12:15.380Z,14.38
2023-01-11T05:14:43.221Z,13.35
2023-01-11T05:17:15.404Z,15.07
2023-01-11T05:19:43.719Z,14.23
2023-01-11T05:22:11.626Z,15.15
2023-01-11T05:24:39.811Z,15.25
2023-01-11T05:27:08.054Z,14.07
2023-01-11T05:29:36.485Z,14.63
2023-01-11T05:32:05.045Z,14.65
2023-01-11T05:34:33.099Z,14.02
2023-01-11T05:37:01.210Z,13.10
2023-01-11T05:39:30.348Z,13.90
2023-01-11T05:41:58.788Z,14.07
2023-01-11T05:44:45.418Z,14.15
2023-01-11T05:47:14.316Z,14.10
2023-01-11T05:49:42.732Z,15.07
2023-01-11T05:52:10.906Z,14.13
2023-01-11T05:54:39.709Z,15.60
2023-01-11T05:57:11.609Z,14.27
2023-01-11T05:59:40.033Z,14.10
2023-01-11T06:02:08.719Z,13.57
2023-01-11T06:04:36.926Z,15.00
2023-01-11T06:07:07.578Z,14.73
2023-01-11T06:09:35.781Z,15.18
2023-01-11T06:12:03.938Z,15.93
2023-01-11T06:14:32.247Z,14.45
2023-01-11T06:17:02.941Z,16.77
2023-01-11T06:19:30.998Z,15.27
2023-01-11T06:21:59.617Z,15.50
2023-01-11T06:24:27.662Z,14.30
2023-01-11T06:26:56.050Z,13.80
2023-01-11T06:29:24.562Z,13.88
2023-01-11T06:31:52.452Z,14.15
2023-01-11T06:34:20.615Z,14.95
2023-01-11T06:36:49.336Z,13.60
2023-01-11T06:39:18.342Z,14.32
2023-01-11T06:41:46.394Z,14.45
2023-01-11T06:44:15.222Z,15.15
2023-01-11T06:46:43.676Z,14.07
2023-01-11T06:49:12.241Z,13.60
2023-01-11T06:51:40.569Z,14.18
2023-01-11T06:54:08.901Z,13.38
2023-01-11T06:56:36.903Z,12.57
2023-01-11T06:59:05.323Z,12.60
2023-01-11T07:01:33.515Z,12.85
2023-01-11T07:04:01.940Z,13.65
2023-01-11T07:06:32.601Z,13.75
2023-01-11T07:09:00.797Z,13.07
2023-01-11T07:11:28.686Z,13.23
2023-01-11T07:13:56.937Z,13.25
2023-01-11T07:16:24.885Z,12.90
2023-01-11T07:18:53.375Z,14.38
2023-01-11T07:21:21.711Z,14.40
2023-01-11T07:23:49.937Z,16.10
2023-01-11T07:26:18.078Z,14.93
2023-01-11T07:28:46.692Z,14.73
2023-01-11T07:31:14.963Z,14.48
2023-01-11T07:33:43.216Z,13.73
2023-01-11T07:36:11.621Z,14.20
2023-01-11T07:38:39.871Z,15.30
2023-01-11T07:41:27.056Z,15.32
2023-01-11T07:43:55.295Z,14.38
2023-01-11T07:46:23.530Z,16.88
2023-01-11T07:48:51.752Z,16.63
2023-01-11T07:51:24.224Z,15.13
2023-01-11T07:53:52.616Z,15.80
2023-01-11T07:56:23.456Z,15.48
2023-01-11T07:58:51.774Z,13.93
2023-01-11T08:01:20.427Z,16.80
2023-01-11T08:03:49.118Z,14.30
2023-01-11T08:06:18.357Z,14.00
2023-01-11T08:08:46.540Z,14.82
2023-01-11T08:11:33.169Z,15.00
2023-01-11T08:14:20.077Z,14.68
2023-01-11T08:16:48.287Z,15.23
2023-01-11T08:19:19.598Z,14.35
2023-01-11T08:21:48.569Z,14.13
2023-01-11T08:24:19.108Z,15.43
2023-01-11T08:26:47.549Z,14.70
2023-01-11T08:29:16.631Z,15.00
2023-01-11T08:31:48.693Z,14.55
2023-01-11T08:34:17.575Z,14.63
2023-01-11T08:36:45.862Z,14.95
2023-01-11T08:39:13.930Z,16.13
2023-01-11T08:41:42.345Z,14.23
2023-01-11T08:44:14.703Z,14.88
2023-01-11T08:46:43.889Z,16.63
2023-01-11T08:49:12.563Z,16.90
2023-01-11T08:51:41.701Z,15.50
2023-01-11T08:54:17.893Z,14.20
2023-01-11T08:56:46.073Z,14.48
2023-01-11T08:59:14.704Z,15.40
2023-01-11T09:01:43.529Z,13.73
2023-01-11T09:04:23.844Z,14.43
2023-01-11T09:06:55.198Z,14.00
2023-01-11T09:09:24.120Z,12.77
2023-01-11T09:11:55.147Z,14.15
2023-01-11T09:14:26.329Z,15.18
2023-01-11T09:16:55.364Z,13.27
2023-01-11T09:19:24.228Z,13.52
2023-01-11T09:21:52.504Z,14.70
2023-01-11T09:24:20.464Z,14.60
2023-01-11T09:26:51.004Z,14.23
2023-01-11T09:29:19.994Z,17.13
2023-01-11T09:31:48.172Z,17.95
2023-01-11T09:34:16.998Z,17.30
2023-01-11T09:36:47.917Z,16.67
2023-01-11T09:39:18.916Z,17.60
2023-01-11T09:41:51.429Z,21.65
2023-01-11T09:44:25.616Z,13.40
2023-01-11T09:47:10.970Z,14.77
2023-01-11T09:49:43.144Z,14.95
2023-01-11T09:52:39.957Z,15.02
2023-01-11T09:55:20.355Z,13.27
2023-01-11T09:58:03.485Z,13.95
2023-01-11T10:01:12.556Z,13.80
2023-01-11T10:04:16.653Z,14.38
2023-01-11T10:07:16.590Z,15.95
2023-01-11T10:18:40.288Z,13.80
2023-01-11T10:19:40.665Z,15.25
2023-01-11T10:22:23.640Z,15.43
2023-01-11T10:25:17.589Z,15.23
2023-01-11T10:28:00.842Z,15.70
2023-01-11T10:31:10.650Z,15.30
2023-01-11T10:34:10.689Z,15.75
2023-01-11T10:37:11.320Z,15.05
2023-01-11T10:40:13.262Z,15.02
2023-01-11T10:43:22.657Z,15.38
2023-01-11T10:46:26.924Z,14.45
2023-01-11T10:49:29.596Z,16.25
2023-01-11T10:52:14.147Z,13.70
2023-01-11T10:54:46.920Z,13.30
2023-01-11T10:57:59.722Z,13.07
2023-01-11T11:00:39.812Z,12.02
2023-01-11T11:03:54.625Z,12.65
2023-01-11T11:06:51.637Z,10.80
2023-01-11T11:09:40.718Z,10.43
2023-01-11T11:12:32.531Z,10.77
2023-01-11T11:15:13.990Z,10.52
2023-01-11T11:17:51.061Z,10.57
2023-01-11T11:20:29.099Z,10.50
2023-01-11T11:22:57.866Z,10.18
2023-01-11T11:25:38.821Z,10.20
2023-01-11T11:28:27.489Z,10.73
2023-01-11T11:31:00.225Z,11.18
2023-01-11T11:33:39.343Z,10.77
2023-01-11T11:36:11.894Z,10.63
2023-01-11T11:39:28.716Z,10.00
2023-01-11T11:42:27.678Z,9.40
2023-01-11T11:45:11.241Z,9.68
2023-01-11T11:47:39.418Z,9.70
2023-01-11T11:50:41.941Z,9.63
2023-01-11T11:53:08.589Z,11.73
2023-01-11T11:55:36.891Z,10.38
2023-01-11T11:58:13.377Z,10.20
2023-01-11T12:00:51.375Z,10.65
2023-01-11T12:03:30.727Z,10.23
2023-01-11T12:06:04.294Z,10.65
2023-01-11T12:08:36.427Z,10.43
2023-01-11T12:11:07.958Z,11.10
2023-01-11T12:13:40.762Z,10.45
2023-01-11T12:16:23.084Z,11.90
2023-01-11T12:18:51.541Z,10.65
2023-01-11T12:21:21.734Z,10.60
2023-01-11T12:24:23.859Z,11.63
2023-01-11T12:27:14.121Z,11.75
2023-01-11T12:29:48.439Z,11.00
2023-01-11T12:32:48.135Z,10.65
2023-01-11T12:35:19.524Z,12.02
2023-01-11T12:38:10.991Z,11.48
2023-01-11T12:40:48.158Z,11.63
2023-01-11T12:44:01.442Z,11.82
2023-01-11T12:46:59.678Z,11.82
2023-01-11T12:49:43.103Z,11.20
2023-01-11T12:52:37.101Z,11.73
2023-01-11T12:55:28.234Z,10.38
2023-01-11T12:58:53.429Z,10.43
2023-01-11T13:02:17.870Z,10.75
2023-01-11T13:05:55.720Z,11.77
2023-01-11T13:09:06.313Z,12.35
2023-01-11T13:12:25.333Z,10.05
2023-01-11T13:15:28.219Z,12.38
2023-01-11T13:18:31.984Z,11.57
2023-01-11T13:21:34.581Z,11.30
2023-01-11T13:24:16.351Z,11.38
2023-01-11T13:26:50.847Z,10.80
2023-01-11T13:29:32.898Z,11.48
2023-01-11T13:32:07.105Z,11.50
2023-01-11T13:35:18.941Z,10.57
2023-01-11T13:37:58.978Z,8.52
2023-01-11T13:40:44.167Z,8.23
2023-01-11T13:43:22.852Z,9.75
2023-01-11T13:46:00.311Z,9.05
2023-01-11T13:48:56.535Z,8.32
2023-01-11T13:51:54.767Z,8.05
2023-01-11T13:54:41.996Z,8.70
2023-01-11T13:57:56.235Z,9.63
2023-01-11T14:01:08.873Z,10.35
2023-01-11T14:03:43.153Z,8.57
2023-01-11T14:06:40.380Z,9.50
2023-01-11T14:09:54.665Z,10.75
2023-01-11T14:12:57.493Z,9.85
2023-01-11T14:15:41.929Z,11.68
2023-01-11T14:18:50.151Z,11.73
2023-01-11T14:21:54.878Z,10.73
2023-01-11T14:24:26.377Z,11.90
2023-01-11T14:27:28.303Z,11.90
2023-01-11T14:30:31.350Z,11.45
2023-01-11T14:33:25.802Z,9.88
2023-01-11T14:36:14.257Z,9.10
2023-01-11T14:39:05.756Z,9.32
2023-01-11T14:41:55.568Z,10.30
2023-01-11T14:44:43.312Z,9.95
2023-01-11T14:47:46.084Z,8.50
2023-01-11T14:50:53.668Z,7.97
2023-01-11T14:53:30.573Z,9.82
2023-01-11T14:55:58.997Z,10.20
2023-01-11T14:58:31.056Z,8.68
2023-01-11T15:00:59.176Z,8.73
2023-01-11T15:03:49.516Z,9.02
2023-01-11T15:06:21.511Z,9.77
2023-01-11T15:08:55.369Z,9.18
2023-01-11T15:11:25.324Z,10.35
2023-01-11T15:14:18.422Z,9.88
2023-01-11T15:17:15.508Z,10.32
2023-01-11T15:19:45.795Z,10.70
2023-01-11T15:22:34.940Z,8.77
2023-01-11T15:25:08.860Z,8.75
2023-01-11T15:27:40.461Z,8.15
2023-01-11T15:33:19.342Z,8.50
2023-01-11T15:35:57.137Z,9.00
2023-01-11T15:38:50.957Z,9.18
2023-01-11T15:42:06.585Z,8.13
2023-01-11T15:45:08.728Z,6.70
2023-01-11T15:50:59.267Z,8.00
2023-01-11T15:53:58.196Z,7.22
2023-01-11T15:57:16.468Z,8.07
2023-01-11T16:00:30.979Z,7.05
2023-01-11T16:03:51.576Z,7.55
2023-01-11T16:06:54.141Z,8.02
2023-01-11T16:09:50.550Z,8.98
2023-01-11T16:12:56.259Z,8.80
2023-01-11T16:16:00.441Z,9.00
2023-01-11T16:18:37.641Z,10.00
2023-01-11T16:21:38.994Z,9.85
2023-01-11T16:24:20.796Z,10.07
2023-01-11T16:26:58.961Z,10.10
2023-01-11T16:29:32.552Z,10.63
2023-01-11T16:32:08.075Z,9.68
2023-01-11T16:34:47.179Z,9.23
2023-01-11T16:37:34.043Z,8.88
2023-01-11T16:40:19.466Z,8.27
2023-01-11T16:43:18.870Z,8.02
2023-01-11T16:45:55.154Z,7.90
2023-01-11T16:48:24.531Z,8.82
2023-01-11T16:51:22.929Z,8.20
2023-01-11T16:53:59.438Z,9.00
2023-01-11T16:56:28.845Z,7.75
2023-01-11T16:59:15.436Z,8.85
2023-01-11T17:02:05.211Z,8.00
2023-01-11T17:04:54.548Z,8.63
2023-01-11T17:07:28.435Z,7.80
2023-01-11T17:10:30.204Z,9.60
2023-01-11T17:14:04.620Z,8.63
2023-01-11T17:16:46.114Z,10.23
2023-01-11T17:19:29.500Z,10.18
2023-01-11T17:22:27.918Z,9.82
2023-01-11T17:25:22.151Z,10.45
2023-01-11T17:28:07.060Z,11.23
2023-01-11T17:30:37.675Z,11.30
2023-01-11T17:33:05.943Z,10.23
2023-01-11T17:35:41.633Z,10.55
2023-01-11T17:38:14.920Z,8.35
2023-01-11T17:40:46.356Z,10.75
2023-01-11T17:43:44.879Z,9.82
2023-01-11T17:46:27.260Z,11.93
2023-01-11T17:49:00.893Z,8.95
2023-01-11T17:51:35.131Z,10.48
2023-01-11T17:54:03.764Z,8.23
2023-01-11T17:56:42.732Z,9.02
2023-01-11T17:59:24.548Z,8.63
2023-01-11T18:02:00.389Z,10.05
2023-01-11T18:04:31.537Z,9.27
2023-01-11T18:07:20.095Z,8.35
2023-01-11T18:09:57.339Z,8.98
2023-01-11T18:12:35.503Z,10.27
2023-01-11T18:15:07.669Z,9.55
2023-01-11T18:17:42.397Z,8.00
2023-01-11T18:20:37.994Z,9.02
2023-01-11T18:23:12.440Z,10.07
2023-01-11T18:25:40.735Z,7.65
2023-01-11T18:28:27.472Z,10.85
2023-01-11T18:31:02.147Z,7.82
2023-01-11T18:33:34.597Z,9.90
2023-01-11T18:36:18.727Z,11.13
2023-01-11T18:38:47.732Z,9.30
2023-01-11T18:41:36.234Z,9.63
2023-01-11T18:44:05.551Z,7.72
2023-01-11T18:46:34.338Z,8.93
2023-01-11T18:49:03.269Z,8.40
2023-01-11T18:51:42.191Z,9.75
2023-01-11T18:54:20.388Z,8.88
2023-01-11T18:56:49.519Z,7.15
2023-01-11T18:59:17.973Z,8.63
2023-01-11T19:01:56.536Z,8.40
2023-01-11T19:04:31.765Z,9.48
2023-01-11T19:07:01.347Z,9.40
2023-01-11T19:09:30.799Z,8.60
2023-01-11T19:11:59.511Z,10.00
2023-01-11T19:14:32.038Z,9.20
2023-01-11T19:17:01.563Z,9.50
2023-01-11T19:19:31.665Z,10.15
2023-01-11T19:22:03.013Z,10.25
2023-01-11T19:24:32.916Z,11.20
2023-01-11T19:27:01.595Z,10.65
2023-01-11T19:29:31.311Z,10.25
2023-01-11T19:32:00.348Z,11.38
2023-01-11T19:34:29.770Z,10.65
2023-01-11T19:36:58.333Z,10.15
2023-01-11T19:39:27.952Z,10.30
2023-01-11T19:42:01.702Z,10.45
2023-01-11T19:44:35.357Z,10.05
2023-01-11T19:47:12.054Z,10.90
2023-01-11T19:49:42.695Z,11.13
2023-01-11T19:52:13.855Z,9.30
2023-01-11T19:54:43.425Z,10.30
2023-01-11T19:57:14.883Z,10.52
2023-01-11T20:02:18.028Z,9.98
2023-01-11T20:04:47.581Z,9.00
2023-01-11T20:07:16.456Z,8.77
2023-01-11T20:09:45.293Z,8.45
2023-01-11T20:12:16.241Z,7.50
2023-01-11T20:14:46.823Z,8.00
2023-01-11T20:17:21.363Z,7.55
2023-01-11T20:19:54.923Z,7.25
2023-01-11T20:22:24.339Z,7.63
2023-01-11T20:24:53.005Z,7.53
2023-01-11T20:27:21.945Z,7.72
2023-01-11T20:29:50.257Z,7.70
2023-01-11T20:32:39.891Z,7.30
2023-01-11T20:35:08.863Z,8.18
2023-01-11T20:37:37.646Z,8.00
2023-01-11T20:40:07.201Z,7.40
2023-01-11T20:42:37.358Z,8.07
2023-01-11T20:45:07.067Z,8.75
2023-01-11T20:47:35.658Z,6.90
2023-01-11T20:50:04.774Z,7.88
2023-01-11T20:52:33.743Z,6.90
2023-01-11T20:55:02.493Z,7.13
2023-01-11T20:57:31.173Z,7.30
2023-01-11T20:59:59.773Z,7.55
2023-01-11T21:02:28.401Z,8.25
2023-01-11T21:04:57.641Z,7.53
2023-01-11T21:07:26.234Z,7.07
2023-01-11T21:09:54.640Z,8.35
2023-01-11T21:12:23.619Z,7.47
2023-01-11T21:14:52.075Z,7.63
2023-01-11T21:17:21.219Z,7.60
2023-01-11T21:19:51.110Z,7.95
2023-01-11T21:22:20.040Z,8.25
2023-01-11T21:24:48.620Z,7.38
2023-01-11T21:27:17.304Z,7.93
2023-01-11T21:29:46.002Z,7.53
2023-01-11T21:32:14.548Z,7.25
2023-01-11T21:34:43.182Z,7.85
2023-01-11T21:37:11.876Z,7.60
2023-01-11T21:39:40.081Z,7.55
2023-01-11T21:42:09.809Z,7.50
2023-01-11T21:44:38.596Z,8.13
2023-01-11T21:47:08.891Z,7.00
2023-01-11T21:49:37.363Z,7.45
2023-01-11T21:52:05.410Z,7.95
2023-01-11T21:54:33.682Z,8.35
2023-01-11T21:57:02.090Z,7.38
2023-01-11T21:59:33.703Z,9.68
2023-01-11T22:02:02.351Z,9.38
2023-01-11T22:04:30.723Z,8.55
2023-01-11T22:07:00.230Z,9.40
2023-01-11T22:09:29.295Z,8.73
2023-01-11T22:11:58.663Z,8.73
2023-01-11T22:14:27.214Z,7.25
2023-01-11T22:16:56.681Z,6.97
2023-01-11T22:19:25.227Z,8.70
2023-01-11T22:21:53.331Z,7.93
2023-01-11T22:24:22.646Z,8.65
2023-01-11T22:26:51.189Z,8.20
2023-01-11T22:29:20.256Z,8.32
2023-01-11T22:32:01.388Z,8.60
2023-01-11T22:34:29.690Z,9.45
2023-01-11T22:36:58.593Z,8.20
2023-01-11T22:39:29.947Z,9.00
2023-01-11T22:44:27.118Z,9.40
2023-01-11T22:46:55.648Z,8.73
2023-01-11T22:49:24.088Z,7.85
2023-01-11T22:51:52.245Z,8.35
2023-01-11T22:54:20.835Z,8.75
2023-01-11T22:56:49.484Z,9.35
2023-01-11T22:59:17.675Z,9.23
2023-01-11T23:01:46.134Z,9.75
2023-01-11T23:04:14.822Z,9.57
2023-01-11T23:06:43.645Z,7.85
2023-01-11T23:09:16.842Z,9.23
2023-01-11T23:12:04.338Z,8.85
2023-01-11T23:14:33.919Z,8.75
2023-01-11T23:17:07.834Z,8.93
2023-01-11T23:19:39.270Z,9.20
2023-01-11T23:22:09.475Z,9.77
2023-01-11T23:24:38.063Z,8.40
2023-01-11T23:27:06.860Z,7.88
2023-01-11T23:29:36.052Z,7.90
2023-01-11T23:32:04.509Z,8.63
2023-01-11T23:34:33.031Z,8.98
2023-01-11T23:37:01.099Z,8.77
2023-01-11T23:39:29.520Z,8.68
2023-01-11T23:42:15.985Z,7.35
2023-01-11T23:44:43.990Z,8.40
2023-01-11T23:47:22.388Z,8.23
2023-01-11T23:49:53.273Z,7.85
2023-01-11T23:52:26.434Z,8.23
2023-01-11T23:54:55.053Z,8.90
2023-01-11T23:57:25.957Z,6.90
2023-01-11T23:59:54.150Z,8.25
